KWWD/WWD METAR and TAF weather

Enter ICAO airport designator
Station Type Date Time Source
KWWD METAR 2019/08/23 14:56 UTC NOAA

KWWD 231456Z AUTO 04010KT 10SM OVC020 24/19 A3001 RMK AO2 SLP162 T02440194 53010


Station Type Date Time Source
KWWD Decoded METAR 2019/08/23 14:56 UTC NOAA

Station name not available
Aug 23, 2019 - 10:56 AM EDT / 2019.08.23 1456 UTC
Wind: from the NE (040 degrees) at 12 MPH (10 KT):0
Visibility: 10 mile(s):0
Sky conditions: overcast
Temperature: 75.9 F (24.4 C)
Dew Point: 66.9 F (19.4 C)
Relative Humidity: 73%
Pressure (altimeter): 30.01 in. Hg (1016 hPa)
Pressure tendency: 0.03 inches (1.0 hPa) higher than three hours ago
ob: KWWD 231456Z AUTO 04010KT 10SM OVC020 24/19 A3001 RMK AO2 SLP162 T02440194 53010
cycle: 15

Station Type Date Time Source
KWWD TAF UTC NOAA

Error!

Example: see airport list